Time,TemperatureF,DewpointF,PressureIn,WindDirection,WindDirectionDegrees,WindSpeedMPH,WindSpeedGustMPH,Humidity,HourlyPrecipIn,Conditions,Clouds,dailyrainin,SoftwareType,DateUTC
2015-08-01 00:06:00,64.7,61.1,29.76,WNW,294,0.0,0.0,88,0.00,,---,0.01,VWS V15.00,2015-08-01 04:06:00,
2015-08-01 00:14:00,64.6,60.7,29.76,WNW,294,0.0,0.0,87,0.00,,---,0.00,VWS V15.00,2015-08-01 04:14:00,
2015-08-01 00:29:00,64.4,61.1,29.76,WNW,294,0.0,0.0,89,0.00,,---,0.00,VWS V15.00,2015-08-01 04:29:00,
2015-08-01 00:36:00,64.5,61.5,29.75,WNW,294,0.0,0.0,90,0.00,,---,0.00,VWS V15.00,2015-08-01 04:36:00,
2015-08-01 00:44:00,64.4,61.7,29.75,WNW,294,0.0,0.0,91,0.00,,---,0.00,VWS V15.00,2015-08-01 04:44:00,
2015-08-01 00:59:00,64.2,61.8,29.75,WNW,294,0.0,0.0,92,0.00,,---,0.00,VWS V15.00,2015-08-01 04:59:00,
2015-08-01 01:06:00,64.0,61.6,29.75,WNW,294,0.0,0.0,92,0.00,,---,0.00,VWS V15.00,2015-08-01 05:06:00,
2015-08-01 01:14:00,64.0,61.9,29.74,WNW,294,0.0,0.0,93,0.00,,---,0.00,VWS V15.00,2015-08-01 05:14:00,
2015-08-01 01:29:00,63.9,61.8,29.74,WNW,294,0.0,0.0,93,0.00,,---,0.00,VWS V15.00,2015-08-01 05:29:00,
2015-08-01 01:36:00,63.9,62.1,29.74,WNW,294,0.0,0.0,94,0.00,,---,0.00,VWS V15.00,2015-08-01 05:36:00,
2015-08-01 01:44:00,64.0,62.2,29.74,WNW,294,0.0,0.0,94,0.00,,---,0.00,VWS V15.00,2015-08-01 05:44:00,
2015-08-01 01:59:00,63.1,60.4,29.73,WNW,294,0.0,0.0,91,0.00,,---,0.00,VWS V15.00,2015-08-01 05:59:00,
2015-08-01 02:06:00,63.1,60.7,29.73,WNW,294,0.0,0.0,92,0.00,,---,0.00,VWS V15.00,2015-08-01 06:06:00,
2015-08-01 02:14:00,63.0,60.6,29.73,WNW,294,0.0,0.0,92,0.00,,---,0.00,VWS V15.00,2015-08-01 06:14:00,
2015-08-01 02:29:00,62.9,60.5,29.73,WNW,294,0.0,0.0,92,0.00,,---,0.00,VWS V15.00,2015-08-01 06:29:00,
2015-08-01 02:36:00,62.8,60.8,29.73,WNW,294,0.0,0.0,93,0.00,,---,0.00,VWS V15.00,2015-08-01 06:36:00,
2015-08-01 02:44:00,62.7,60.7,29.73,WNW,294,0.0,0.0,93,0.00,,---,0.00,VWS V15.00,2015-08-01 06:44:00,
2015-08-01 02:59:00,62.7,61.0,29.73,WNW,294,0.0,0.0,94,0.00,,---,0.00,VWS V15.00,2015-08-01 06:59:00,
2015-08-01 03:06:00,62.7,61.0,29.73,WNW,294,0.0,0.0,94,0.00,,---,0.00,VWS V15.00,2015-08-01 07:06:00,
2015-08-01 03:14:00,62.8,61.0,29.72,WNW,294,0.0,0.0,94,0.00,,---,0.00,VWS V15.00,2015-08-01 07:14:00,
2015-08-01 03:29:00,62.6,60.8,29.72,WNW,294,0.0,0.0,94,0.00,,---,0.00,VWS V15.00,2015-08-01 07:29:00,
2015-08-01 03:36:00,62.3,60.2,29.72,WNW,294,0.0,0.0,93,0.00,,---,0.00,VWS V15.00,2015-08-01 07:36:00,
2015-08-01 03:44:00,62.3,60.6,29.72,WNW,294,0.0,0.0,94,0.00,,---,0.00,VWS V15.00,2015-08-01 07:44:00,
2015-08-01 03:59:00,62.6,61.2,29.72,WNW,294,0.0,0.0,95,0.00,,---,0.00,VWS V15.00,2015-08-01 07:59:00,
2015-08-01 04:06:00,62.5,60.8,29.72,WNW,294,0.0,0.0,94,0.00,,---,0.00,VWS V15.00,2015-08-01 08:06:00,
2015-08-01 04:14:00,62.2,60.5,29.72,WNW,294,0.0,0.0,94,0.00,,---,0.00,VWS V15.00,2015-08-01 08:14:00,
2015-08-01 04:29:00,61.9,60.2,29.72,WNW,294,0.0,0.0,94,0.00,,---,0.00,VWS V15.00,2015-08-01 08:29:00,
2015-08-01 04:36:00,61.9,60.5,29.71,WNW,294,0.0,0.0,95,0.00,,---,0.00,VWS V15.00,2015-08-01 08:36:00,
2015-08-01 04:44:00,62.0,60.6,29.71,WNW,294,0.0,0.0,95,0.00,,---,0.00,VWS V15.00,2015-08-01 08:44:00,
2015-08-01 04:59:00,62.1,60.7,29.71,WNW,294,0.0,0.0,95,0.00,,---,0.00,VWS V15.00,2015-08-01 08:59:00,
2015-08-01 05:06:00,62.0,60.6,29.71,WNW,294,0.0,0.0,95,0.00,,---,0.00,VWS V15.00,2015-08-01 09:06:00,
2015-08-01 05:14:00,62.0,60.6,29.71,WNW,294,0.0,0.0,95,0.00,,---,0.00,VWS V15.00,2015-08-01 09:14:00,
2015-08-01 05:29:00,62.2,61.0,29.71,WNW,294,0.0,0.0,96,0.00,,---,0.00,VWS V15.00,2015-08-01 09:29:00,
2015-08-01 05:36:00,62.4,61.2,29.71,WNW,294,0.0,0.0,96,0.00,,---,0.00,VWS V15.00,2015-08-01 09:36:00,
2015-08-01 05:45:00,62.7,61.5,29.71,WNW,294,0.0,0.0,96,0.00,,---,0.00,VWS V15.00,2015-08-01 09:45:00,
2015-08-01 06:00:00,63.6,63.0,29.71,WNW,295,0.0,0.0,98,0.00,,---,0.00,VWS V15.00,2015-08-01 10:00:00,
2015-08-01 06:06:00,64.0,63.1,29.71,WNW,295,0.0,0.0,97,0.00,,---,0.00,VWS V15.00,2015-08-01 10:06:00,
2015-08-01 06:15:00,63.8,62.6,29.70,WNW,295,0.0,0.0,96,0.00,,---,0.00,VWS V15.00,2015-08-01 10:15:00,
2015-08-01 06:30:00,64.9,64.3,29.71,North,11,0.0,0.0,98,0.00,,---,0.00,VWS V15.00,2015-08-01 10:30:00,
2015-08-01 06:36:00,64.8,63.3,29.71,North,5,0.0,0.0,95,0.00,,---,0.00,VWS V15.00,2015-08-01 10:36:00,
2015-08-01 06:45:00,64.6,63.1,29.70,North,5,0.0,0.0,95,0.00,,---,0.00,VWS V15.00,2015-08-01 10:45:00,
2015-08-01 07:00:00,64.8,63.3,29.71,North,5,0.0,0.0,95,0.00,,---,0.00,VWS V15.00,2015-08-01 11:00:00,
2015-08-01 07:06:00,65.2,63.7,29.71,North,5,0.0,0.0,95,0.00,,---,0.00,VWS V15.00,2015-08-01 11:06:00,
2015-08-01 07:15:00,66.9,65.4,29.71,North,5,0.0,0.0,95,0.00,,---,0.00,VWS V15.00,2015-08-01 11:15:00,
2015-08-01 07:30:00,67.8,65.1,29.71,NE,47,0.0,0.0,91,0.00,,---,0.00,VWS V15.00,2015-08-01 11:30:00,
2015-08-01 07:36:00,68.4,65.7,29.70,NE,47,0.0,0.0,91,0.00,,---,0.00,VWS V15.00,2015-08-01 11:36:00,
2015-08-01 07:45:00,68.8,64.8,29.70,NE,47,0.0,0.0,87,0.00,,---,0.00,VWS V15.00,2015-08-01 11:45:00,
2015-08-01 08:00:00,69.2,65.5,29.70,NE,44,0.0,0.0,88,0.00,,---,0.00,VWS V15.00,2015-08-01 12:00:00,
2015-08-01 08:06:00,69.6,65.2,29.70,NE,44,0.0,0.0,86,0.00,,---,0.00,VWS V15.00,2015-08-01 12:06:00,
2015-08-01 08:15:00,70.7,66.7,29.70,NE,44,0.0,0.0,87,0.00,,---,0.00,VWS V15.00,2015-08-01 12:15:00,
2015-08-01 08:30:00,71.4,66.0,29.70,East,94,0.0,0.0,83,0.00,,---,0.00,VWS V15.00,2015-08-01 12:30:00,
2015-08-01 08:36:00,71.7,65.9,29.70,East,94,0.0,0.0,82,0.00,,---,0.00,VWS V15.00,2015-08-01 12:36:00,
2015-08-01 08:45:00,72.2,65.7,29.70,East,94,0.0,0.0,80,0.00,,---,0.00,VWS V15.00,2015-08-01 12:45:00,
2015-08-01 09:00:00,72.9,66.4,29.69,East,92,0.0,0.0,80,0.00,,---,0.00,VWS V15.00,2015-08-01 13:00:00,
2015-08-01 09:06:00,73.2,66.3,29.69,East,92,0.0,0.0,79,0.00,,---,0.00,VWS V15.00,2015-08-01 13:06:00,
2015-08-01 09:15:00,73.4,66.5,29.70,SSE,154,0.0,0.0,79,0.00,,---,0.00,VWS V15.00,2015-08-01 13:15:00,
2015-08-01 09:30:00,73.9,66.6,29.69,SSE,154,0.0,0.0,78,0.00,,---,0.00,VWS V15.00,2015-08-01 13:30:00,
2015-08-01 09:36:00,74.1,66.8,29.69,SSE,154,0.0,0.0,78,0.00,,---,0.00,VWS V15.00,2015-08-01 13:36:00,
2015-08-01 09:45:00,74.6,66.9,29.70,SSE,153,0.0,0.0,77,0.00,,---,0.00,VWS V15.00,2015-08-01 13:45:00,
2015-08-01 10:06:00,76.0,67.9,29.69,SW,224,0.0,0.0,76,0.00,,---,0.00,VWS V15.00,2015-08-01 14:06:00,
2015-08-01 10:15:00,76.3,67.4,29.70,WSW,257,0.0,0.0,74,0.00,,---,0.00,VWS V15.00,2015-08-01 14:15:00,
2015-08-01 10:30:00,77.2,66.7,29.70,SW,219,0.0,0.0,70,0.00,,---,0.00,VWS V15.00,2015-08-01 14:30:00,
2015-08-01 10:36:00,77.2,67.5,29.70,SSW,211,0.0,0.0,72,0.00,,---,0.00,VWS V15.00,2015-08-01 14:36:00,
2015-08-01 10:45:00,77.1,67.8,29.70,SSW,211,0.0,0.0,73,0.00,,---,0.00,VWS V15.00,2015-08-01 14:45:00,